createdAt,value
2023-03-30T00:02:42.596Z,2.50
2023-03-30T00:05:19.399Z,2.38
2023-03-30T00:07:50.339Z,3.15
2023-03-30T00:10:19.590Z,4.80
2023-03-30T00:12:56.663Z,5.00
2023-03-30T00:15:29.053Z,5.05
2023-03-30T00:18:06.064Z,3.45
2023-03-30T00:20:37.915Z,2.97
2023-03-30T00:23:10.409Z,3.05
2023-03-30T00:25:37.875Z,3.17
2023-03-30T00:28:18.991Z,2.35
2023-03-30T00:33:44.620Z,2.85
2023-03-30T00:36:12.770Z,3.17
2023-03-30T00:38:42.952Z,2.50
2023-03-30T00:41:10.543Z,2.55
2023-03-30T00:44:01.640Z,2.47
2023-03-30T00:46:37.325Z,2.45
2023-03-30T00:49:14.758Z,2.47
2023-03-30T00:51:45.802Z,2.63
2023-03-30T00:54:23.837Z,2.95
2023-03-30T00:56:54.501Z,2.45
2023-03-30T01:02:23.791Z,2.55
2023-03-30T01:04:58.092Z,2.50
2023-03-30T01:08:00.221Z,2.38
2023-03-30T01:10:48.915Z,2.95
2023-03-30T01:13:28.399Z,2.40
2023-03-30T01:16:21.575Z,3.10
2023-03-30T01:19:11.598Z,2.67
2023-03-30T01:22:13.265Z,2.95
2023-03-30T01:25:55.960Z,2.60
2023-03-30T01:28:50.862Z,3.33
2023-03-30T01:31:45.720Z,2.50
2023-03-30T01:34:43.517Z,3.05
2023-03-30T01:41:14.820Z,2.00
2023-03-30T01:44:39.090Z,2.45
2023-03-30T01:47:57.870Z,2.45
2023-03-30T01:51:15.915Z,2.53
2023-03-30T01:54:09.374Z,2.90
2023-03-30T01:57:07.214Z,2.67
2023-03-30T02:00:16.715Z,3.05
2023-03-30T02:03:03.163Z,3.15
2023-03-30T02:05:34.173Z,3.13
2023-03-30T02:08:10.262Z,2.90
2023-03-30T02:10:41.517Z,2.53
2023-03-30T02:13:21.765Z,3.03
2023-03-30T02:15:59.567Z,3.17
2023-03-30T02:18:27.769Z,2.95
2023-03-30T02:20:59.646Z,3.33
2023-03-30T02:23:41.350Z,3.40
2023-03-30T02:26:12.532Z,3.38
2023-03-30T02:28:42.766Z,3.10
2023-03-30T02:31:18.169Z,3.20
2023-03-30T02:34:01.405Z,3.70
2023-03-30T02:36:37.946Z,3.72
2023-03-30T02:39:30.237Z,2.53
2023-03-30T02:42:05.182Z,3.10
2023-03-30T02:45:00.216Z,3.42
2023-03-30T02:47:43.649Z,3.55
2023-03-30T02:50:32.843Z,3.35
2023-03-30T02:53:20.749Z,3.75
2023-03-30T02:56:04.413Z,3.33
2023-03-30T02:58:54.336Z,3.28
2023-03-30T03:01:38.813Z,3.55
2023-03-30T03:04:13.068Z,3.25
2023-03-30T03:06:56.672Z,4.03
2023-03-30T03:09:25.381Z,3.42
2023-03-30T03:11:56.042Z,3.42
2023-03-30T03:14:31.878Z,3.75
2023-03-30T03:17:01.632Z,3.97
2023-03-30T03:19:34.240Z,4.25
2023-03-30T03:22:07.332Z,3.70
2023-03-30T03:24:44.994Z,3.45
2023-03-30T03:27:15.808Z,3.60
2023-03-30T03:30:18.222Z,2.83
2023-03-30T03:32:56.090Z,4.00
2023-03-30T03:35:30.218Z,3.92
2023-03-30T03:38:00.672Z,3.78
2023-03-30T03:40:30.210Z,3.25
2023-03-30T03:43:00.720Z,3.78
2023-03-30T03:45:36.761Z,3.60
2023-03-30T03:48:16.232Z,3.58
2023-03-30T03:51:04.745Z,3.10
2023-03-30T03:53:35.334Z,2.80
2023-03-30T03:56:09.603Z,2.72
2023-03-30T03:58:37.744Z,3.00
2023-03-30T04:01:34.027Z,2.60
2023-03-30T04:04:19.448Z,3.28
2023-03-30T04:06:56.470Z,3.05
2023-03-30T04:09:43.242Z,3.60
2023-03-30T04:12:37.388Z,2.78
2023-03-30T04:15:34.186Z,3.85
2023-03-30T04:18:44.231Z,3.08
2023-03-30T04:21:47.179Z,2.85
2023-03-30T04:24:33.450Z,3.38
2023-03-30T04:27:51.657Z,2.72
2023-03-30T04:30:43.483Z,3.13
2023-03-30T04:34:02.185Z,3.53
2023-03-30T04:37:12.385Z,2.92
2023-03-30T04:40:08.089Z,2.78
2023-03-30T04:43:14.337Z,4.45
2023-03-30T04:46:14.103Z,3.22
2023-03-30T04:49:28.276Z,3.40
2023-03-30T04:52:34.456Z,3.55
2023-03-30T04:55:28.568Z,3.30
2023-03-30T04:58:27.292Z,3.47
2023-03-30T05:01:10.370Z,4.20
2023-03-30T05:04:06.666Z,4.10
2023-03-30T05:07:15.151Z,3.75
2023-03-30T05:10:17.266Z,4.07
2023-03-30T05:13:32.465Z,5.00
2023-03-30T05:16:26.567Z,4.13
2023-03-30T05:19:26.640Z,3.85
2023-03-30T05:22:20.694Z,3.75
2023-03-30T05:25:24.536Z,4.07
2023-03-30T05:28:25.628Z,3.97
2023-03-30T05:31:29.776Z,4.90
2023-03-30T05:34:38.636Z,4.47
2023-03-30T05:37:38.682Z,4.45
2023-03-30T05:41:02.494Z,3.97
2023-03-30T05:44:05.017Z,4.53
2023-03-30T05:47:03.618Z,4.68
2023-03-30T05:50:12.356Z,4.35
2023-03-30T05:53:21.859Z,4.20
2023-03-30T05:56:35.091Z,3.78
2023-03-30T05:59:26.928Z,3.78
2023-03-30T06:02:19.358Z,3.85
2023-03-30T06:04:55.414Z,4.05
2023-03-30T06:07:26.954Z,4.28
2023-03-30T06:10:07.752Z,3.50
2023-03-30T06:12:45.544Z,3.95
2023-03-30T06:15:44.568Z,4.60
2023-03-30T06:18:43.848Z,4.10
2023-03-30T06:21:27.089Z,5.18
2023-03-30T06:24:22.672Z,4.55
2023-03-30T06:27:03.176Z,4.55
2023-03-30T06:29:58.875Z,5.13
2023-03-30T06:32:46.364Z,5.38
2023-03-30T06:36:19.182Z,5.18
2023-03-30T06:38:56.910Z,6.05
2023-03-30T06:41:33.997Z,6.40
2023-03-30T06:44:04.824Z,6.43
2023-03-30T06:46:43.864Z,5.85
2023-03-30T06:49:33.588Z,5.35
2023-03-30T06:52:51.096Z,6.10
2023-03-30T06:55:31.173Z,5.90
2023-03-30T06:58:11.482Z,5.47
2023-03-30T07:00:42.709Z,4.05
2023-03-30T07:03:40.703Z,4.78
2023-03-30T07:06:36.051Z,3.70
2023-03-30T07:09:22.206Z,4.05
2023-03-30T07:12:12.579Z,3.45
2023-03-30T07:15:13.561Z,3.72
2023-03-30T07:18:09.965Z,3.33
2023-03-30T07:23:33.288Z,3.92
2023-03-30T07:26:20.770Z,3.15
2023-03-30T07:29:01.730Z,4.35
2023-03-30T07:32:14.789Z,4.22
2023-03-30T07:35:00.715Z,4.13
2023-03-30T07:37:40.249Z,4.15
2023-03-30T07:40:19.342Z,3.97
2023-03-30T07:42:51.332Z,3.55
2023-03-30T07:45:25.672Z,4.67
2023-03-30T07:48:04.503Z,3.70
2023-03-30T07:50:47.706Z,3.70
2023-03-30T07:53:28.671Z,3.50
2023-03-30T07:56:02.672Z,3.40
2023-03-30T07:58:47.240Z,3.25
2023-03-30T08:01:17.886Z,3.65
2023-03-30T08:04:14.000Z,3.65
2023-03-30T08:06:45.794Z,3.70
2023-03-30T08:09:38.966Z,3.50
2023-03-30T08:12:11.159Z,3.63
2023-03-30T08:14:48.078Z,3.80
2023-03-30T08:17:32.455Z,3.63
2023-03-30T08:19:59.649Z,4.50
2023-03-30T08:22:33.017Z,4.55
2023-03-30T08:25:00.234Z,4.32
2023-03-30T08:27:34.862Z,4.07
2023-03-30T08:30:12.757Z,3.63
2023-03-30T08:32:53.969Z,4.53
2023-03-30T08:35:38.229Z,4.70
2023-03-30T08:38:27.969Z,4.20
2023-03-30T08:41:24.644Z,4.57
2023-03-30T08:44:12.440Z,4.50
2023-03-30T08:47:02.111Z,4.65
2023-03-30T08:49:38.802Z,4.65
2023-03-30T08:52:06.116Z,5.82
2023-03-30T08:54:34.510Z,4.13
2023-03-30T08:57:35.414Z,4.75
2023-03-30T09:00:56.298Z,4.40
2023-03-30T09:04:07.075Z,4.70
2023-03-30T09:07:24.522Z,4.63
2023-03-30T09:10:03.291Z,4.60
2023-03-30T09:12:46.138Z,4.70
2023-03-30T09:16:02.089Z,4.47
2023-03-30T09:18:39.398Z,4.35
2023-03-30T09:21:29.085Z,4.20
2023-03-30T09:24:13.202Z,3.90
2023-03-30T09:27:16.221Z,5.57
2023-03-30T09:30:29.252Z,4.18
2023-03-30T09:33:40.160Z,5.65
2023-03-30T09:36:44.744Z,5.13
2023-03-30T09:39:24.389Z,4.53
2023-03-30T09:42:24.536Z,4.75
2023-03-30T09:45:08.134Z,4.45
2023-03-30T09:47:50.025Z,5.30
2023-03-30T09:50:31.512Z,5.18
2023-03-30T09:56:22.541Z,5.97
2023-03-30T09:58:56.780Z,5.60
2023-03-30T10:01:46.415Z,4.18
2023-03-30T10:04:21.615Z,4.40
2023-03-30T10:09:44.875Z,4.18
2023-03-30T10:12:25.768Z,4.13
2023-03-30T10:15:08.793Z,5.18
2023-03-30T10:17:51.537Z,5.00
2023-03-30T10:20:48.294Z,4.05
2023-03-30T10:23:48.093Z,4.38
2023-03-30T10:26:30.901Z,3.88
2023-03-30T10:29:13.285Z,4.03
2023-03-30T10:32:06.092Z,3.90
2023-03-30T10:34:55.594Z,3.47
2023-03-30T10:37:31.372Z,4.20
2023-03-30T10:40:09.058Z,5.70
2023-03-30T10:42:54.802Z,4.57
2023-03-30T10:45:49.390Z,4.33
2023-03-30T10:48:34.110Z,4.00
2023-03-30T10:51:41.445Z,4.72
2023-03-30T10:54:45.522Z,4.25
2023-03-30T10:57:28.591Z,5.22
2023-03-30T11:00:41.096Z,6.20
2023-03-30T11:03:27.676Z,5.40
2023-03-30T11:06:26.845Z,5.40
2023-03-30T11:09:17.577Z,5.00
2023-03-30T11:12:23.380Z,4.20
2023-03-30T11:15:12.535Z,5.20
2023-03-30T11:18:02.796Z,4.40
2023-03-30T11:21:05.744Z,5.38
2023-03-30T11:23:49.202Z,5.13
2023-03-30T11:26:39.385Z,6.30
2023-03-30T11:29:53.454Z,6.07
2023-03-30T11:32:50.204Z,4.07
2023-03-30T11:35:58.903Z,4.35
2023-03-30T11:39:02.645Z,4.53
2023-03-30T11:41:57.301Z,4.22
2023-03-30T11:44:43.605Z,3.90
2023-03-30T11:47:32.699Z,5.10
2023-03-30T11:50:36.243Z,4.28
2023-03-30T11:53:30.915Z,4.57
2023-03-30T11:56:11.544Z,4.20
2023-03-30T11:58:49.528Z,3.97
2023-03-30T12:01:50.723Z,3.58
2023-03-30T12:04:36.853Z,4.03
2023-03-30T12:07:22.582Z,3.88
2023-03-30T12:10:33.937Z,4.05
2023-03-30T12:13:29.400Z,3.53
2023-03-30T12:16:49.645Z,4.68
2023-03-30T12:19:58.461Z,3.72
2023-03-30T12:23:29.985Z,4.82
2023-03-30T12:26:32.406Z,3.95
2023-03-30T12:31:59.651Z,3.75
2023-03-30T12:34:41.118Z,3.83
2023-03-30T12:37:33.735Z,3.25
2023-03-30T12:40:26.338Z,3.38
2023-03-30T12:43:26.579Z,3.72
2023-03-30T12:46:14.161Z,3.75
2023-03-30T12:49:13.750Z,4.07
2023-03-30T12:52:00.423Z,4.30
2023-03-30T12:54:33.159Z,3.38
2023-03-30T12:57:28.497Z,4.07
2023-03-30T13:00:17.328Z,2.83
2023-03-30T13:03:07.257Z,3.40
2023-03-30T13:08:34.380Z,3.58
2023-03-30T13:11:26.753Z,3.67
2023-03-30T13:14:39.447Z,3.15
2023-03-30T13:17:26.104Z,3.05
2023-03-30T13:20:31.802Z,3.13
2023-03-30T13:23:12.687Z,3.53
2023-03-30T13:29:11.931Z,3.92
2023-03-30T13:32:12.998Z,3.80
2023-03-30T13:35:27.519Z,3.63
2023-03-30T13:38:22.642Z,3.30
2023-03-30T13:41:09.566Z,3.78
2023-03-30T13:44:20.179Z,3.15
2023-03-30T13:47:08.592Z,3.30
2023-03-30T13:50:07.473Z,3.83
2023-03-30T13:52:44.955Z,3.22
2023-03-30T13:55:29.479Z,2.55
2023-03-30T13:58:15.070Z,3.00
2023-03-30T14:01:05.816Z,3.10
2023-03-30T14:03:51.934Z,4.05
2023-03-30T14:09:29.258Z,3.55
2023-03-30T14:12:07.876Z,3.03
2023-03-30T14:14:55.934Z,3.13
2023-03-30T14:17:34.179Z,3.05
2023-03-30T14:20:38.814Z,3.05
2023-03-30T14:23:25.705Z,2.97
2023-03-30T14:26:12.085Z,3.28
2023-03-30T14:29:01.032Z,3.60
2023-03-30T14:32:20.996Z,3.65
2023-03-30T14:35:17.702Z,3.40
2023-03-30T14:38:06.734Z,3.25
2023-03-30T14:44:10.616Z,2.80
2023-03-30T14:47:00.141Z,3.50
2023-03-30T14:49:40.510Z,3.80
2023-03-30T14:52:35.865Z,3.38
2023-03-30T14:55:18.949Z,4.20
2023-03-30T14:57:55.582Z,3.20
2023-03-30T15:03:32.833Z,4.05
2023-03-30T15:06:19.884Z,3.85
2023-03-30T15:09:00.026Z,3.28
2023-03-30T15:11:29.462Z,3.88
2023-03-30T15:14:03.864Z,3.83
2023-03-30T15:16:41.173Z,3.13
2023-03-30T15:19:33.381Z,3.67
2023-03-30T15:22:37.894Z,3.00
2023-03-30T15:25:18.198Z,2.67
2023-03-30T15:28:05.978Z,3.05
2023-03-30T15:30:41.310Z,3.10
2023-03-30T15:33:34.936Z,2.88
2023-03-30T15:36:20.678Z,3.88
2023-03-30T15:39:06.060Z,3.50
2023-03-30T15:42:12.137Z,3.47
2023-03-30T15:44:48.814Z,2.83
2023-03-30T15:47:24.986Z,3.38
2023-03-30T15:50:18.176Z,3.35
2023-03-30T15:52:58.431Z,2.95
2023-03-30T15:55:55.018Z,2.70
2023-03-30T15:58:29.088Z,3.17
2023-03-30T16:00:59.499Z,3.13
2023-03-30T16:03:41.707Z,3.45
2023-03-30T16:06:19.956Z,3.55
2023-03-30T16:09:04.931Z,3.30
2023-03-30T16:11:35.180Z,2.92
2023-03-30T16:17:10.333Z,3.50
2023-03-30T16:19:56.195Z,3.20
2023-03-30T16:22:44.551Z,3.50
2023-03-30T16:25:23.275Z,3.55
2023-03-30T16:31:01.288Z,3.90
2023-03-30T16:33:31.997Z,3.72
2023-03-30T16:36:14.343Z,4.80
2023-03-30T16:38:55.369Z,3.45
2023-03-30T16:41:33.412Z,4.40
2023-03-30T16:44:14.074Z,3.60
2023-03-30T16:46:59.266Z,3.83
2023-03-30T16:49:42.070Z,4.57
2023-03-30T16:52:25.327Z,4.90
2023-03-30T16:55:03.574Z,4.70
2023-03-30T16:57:42.032Z,4.80
2023-03-30T17:00:47.679Z,5.32
2023-03-30T17:03:20.531Z,4.53
2023-03-30T17:05:57.170Z,4.47
2023-03-30T17:08:37.690Z,5.13
2023-03-30T17:11:13.817Z,4.88
2023-03-30T17:13:49.561Z,5.13
2023-03-30T17:16:30.173Z,5.65
2023-03-30T17:19:16.451Z,5.78
2023-03-30T17:21:54.694Z,4.57
2023-03-30T17:24:31.593Z,3.92
2023-03-30T17:27:03.108Z,4.93
2023-03-30T17:29:39.491Z,5.95
2023-03-30T17:32:17.420Z,5.47
2023-03-30T17:34:55.202Z,5.45
2023-03-30T17:37:28.038Z,5.22
2023-03-30T17:40:11.291Z,5.05
2023-03-30T17:42:44.847Z,5.97
2023-03-30T17:48:05.886Z,4.47
2023-03-30T17:50:53.624Z,5.28
2023-03-30T17:53:32.937Z,5.97
2023-03-30T17:56:04.525Z,4.93
2023-03-30T17:58:46.169Z,5.25
2023-03-30T18:01:21.589Z,4.97
2023-03-30T18:04:17.480Z,4.85
2023-03-30T18:06:57.926Z,4.53
2023-03-30T18:09:44.868Z,5.88
2023-03-30T18:12:28.045Z,4.60
2023-03-30T18:18:02.799Z,4.47
2023-03-30T18:20:46.388Z,5.13
2023-03-30T18:23:26.403Z,5.57
2023-03-30T18:26:20.024Z,4.20
2023-03-30T18:28:52.151Z,5.80
2023-03-30T18:31:28.896Z,6.93
2023-03-30T18:33:58.789Z,4.40
2023-03-30T18:36:37.865Z,4.20
2023-03-30T18:39:37.614Z,5.75
2023-03-30T18:42:13.887Z,3.78
2023-03-30T18:47:29.109Z,4.47
2023-03-30T18:50:01.622Z,5.15
2023-03-30T18:52:34.062Z,4.65
2023-03-30T18:55:08.998Z,4.10
2023-03-30T18:57:50.708Z,4.90
2023-03-30T19:00:30.590Z,4.10
2023-03-30T19:03:00.668Z,5.53
2023-03-30T19:05:33.536Z,5.18
2023-03-30T19:08:11.568Z,5.38
2023-03-30T19:10:48.961Z,4.20
2023-03-30T19:13:27.963Z,5.28
2023-03-30T19:16:08.496Z,5.07
2023-03-30T19:18:44.934Z,5.30
2023-03-30T19:21:39.279Z,4.47
2023-03-30T19:24:14.145Z,4.82
2023-03-30T19:26:44.588Z,5.30
2023-03-30T19:29:32.074Z,4.80
2023-03-30T19:32:05.027Z,5.32
2023-03-30T19:34:39.740Z,5.70
2023-03-30T19:37:09.498Z,5.72
2023-03-30T19:39:43.846Z,6.07
2023-03-30T19:42:21.439Z,6.57
2023-03-30T19:44:58.111Z,5.50
2023-03-30T19:47:32.573Z,7.32
2023-03-30T19:53:09.737Z,6.50
2023-03-30T19:55:49.298Z,6.03
2023-03-30T19:58:24.710Z,6.63
2023-03-30T20:01:03.643Z,6.68
2023-03-30T20:03:40.478Z,6.70
2023-03-30T20:06:18.832Z,7.05
2023-03-30T20:08:55.113Z,6.05
2023-03-30T20:11:33.226Z,6.38
2023-03-30T20:17:00.587Z,7.47
2023-03-30T20:19:57.258Z,7.10
2023-03-30T20:22:34.203Z,7.35
2023-03-30T20:25:08.621Z,6.38
2023-03-30T20:27:41.558Z,5.72
2023-03-30T20:30:12.852Z,7.22
2023-03-30T20:33:06.351Z,6.80
2023-03-30T20:35:45.809Z,6.55
2023-03-30T20:38:25.410Z,6.50
2023-03-30T20:41:15.837Z,7.00
2023-03-30T20:43:57.609Z,7.03
2023-03-30T20:46:37.630Z,8.05
2023-03-30T20:49:13.176Z,6.93
2023-03-30T20:51:46.337Z,8.38
2023-03-30T20:54:18.288Z,8.73
2023-03-30T20:56:51.189Z,7.63
2023-03-30T20:59:24.327Z,8.57
2023-03-30T21:02:01.300Z,9.25
2023-03-30T21:04:29.094Z,8.95
2023-03-30T21:07:00.575Z,9.38
2023-03-30T21:09:30.324Z,8.57
2023-03-30T21:12:05.753Z,9.20
2023-03-30T21:14:37.957Z,10.30
2023-03-30T21:17:08.071Z,10.55
2023-03-30T21:19:43.599Z,10.13
2023-03-30T21:22:13.737Z,10.40
2023-03-30T21:24:43.858Z,10.82
2023-03-30T21:27:16.248Z,10.07
2023-03-30T21:29:59.584Z,10.57
2023-03-30T21:32:34.817Z,10.32
2023-03-30T21:35:04.743Z,10.43
2023-03-30T21:37:50.212Z,9.95
2023-03-30T21:40:25.739Z,11.63
2023-03-30T21:43:07.144Z,10.13
2023-03-30T21:45:42.307Z,10.73
2023-03-30T21:48:14.739Z,10.82
2023-03-30T21:50:50.390Z,11.20
2023-03-30T21:53:21.086Z,11.85
2023-03-30T21:55:54.643Z,11.05
2023-03-30T21:58:40.411Z,10.32
2023-03-30T22:01:25.190Z,10.60
2023-03-30T22:04:31.737Z,11.80
2023-03-30T22:07:21.732Z,10.23
2023-03-30T22:10:01.679Z,10.68
2023-03-30T22:12:49.400Z,10.50
2023-03-30T22:15:23.321Z,11.93
2023-03-30T22:18:04.851Z,11.15
2023-03-30T22:20:40.425Z,11.25
2023-03-30T22:23:21.928Z,10.90
2023-03-30T22:26:04.279Z,10.35
2023-03-30T22:28:45.242Z,11.27
2023-03-30T22:31:23.631Z,11.38
2023-03-30T22:34:06.696Z,11.10
2023-03-30T22:36:36.957Z,11.15
2023-03-30T22:39:05.355Z,10.38
2023-03-30T22:41:37.067Z,11.85
2023-03-30T22:44:28.742Z,13.30
2023-03-30T22:47:03.508Z,12.77
2023-03-30T22:49:33.875Z,11.77
2023-03-30T22:52:11.909Z,14.40
2023-03-30T22:54:44.434Z,15.45
2023-03-30T22:57:23.376Z,13.80
2023-03-30T22:59:59.647Z,14.77
2023-03-30T23:02:29.231Z,14.63
2023-03-30T23:05:15.271Z,15.80
2023-03-30T23:07:46.287Z,15.47
2023-03-30T23:13:14.934Z,15.20
2023-03-30T23:15:48.938Z,15.90
2023-03-30T23:18:30.765Z,15.55
2023-03-30T23:21:13.862Z,15.50
2023-03-30T23:23:46.856Z,16.65
2023-03-30T23:26:16.686Z,16.42
2023-03-30T23:28:46.987Z,15.77
2023-03-30T23:31:25.123Z,14.63
2023-03-30T23:33:57.219Z,16.00
2023-03-30T23:36:32.349Z,14.50
2023-03-30T23:39:37.942Z,15.27
2023-03-30T23:42:16.109Z,14.70
2023-03-30T23:44:48.208Z,13.70
2023-03-30T23:47:17.963Z,15.93
2023-03-30T23:49:50.409Z,14.40
2023-03-30T23:52:29.232Z,14.82
2023-03-30T23:55:02.194Z,13.65
2023-03-30T23:57:35.674Z,13.65
